createdAt,value
2022-08-01T00:01:44.329Z,88111.41
2022-08-01T00:04:13.047Z,87597.34
2022-08-01T00:06:41.826Z,87854.38
2022-08-01T00:09:10.363Z,87597.34
2022-08-01T00:11:59.466Z,86826.34
2022-08-01T00:14:32.611Z,87597.34
2022-08-01T00:17:07.124Z,87340.31
2022-08-01T00:19:37.149Z,87854.38
2022-08-01T00:22:06.525Z,87597.34
2022-08-01T00:24:35.300Z,86826.34
2022-08-01T00:27:05.985Z,87083.34
2022-08-01T00:30:09.734Z,87083.34
2022-08-01T00:32:23.398Z,87854.38
2022-08-01T00:34:53.664Z,87340.31
2022-08-01T00:37:22.226Z,87083.34
2022-08-01T00:39:50.700Z,87083.34
2022-08-01T00:42:21.017Z,86569.41
2022-08-01T00:44:49.784Z,86312.47
2022-08-01T00:47:18.670Z,86826.34
2022-08-01T00:49:47.610Z,86826.34
2022-08-01T00:52:16.419Z,86569.41
2022-08-01T00:54:45.786Z,86569.41
2022-08-01T00:57:15.076Z,86055.56
2022-08-01T00:59:45.420Z,85541.78
2022-08-01T01:02:17.190Z,85541.78
2022-08-01T01:04:45.623Z,85284.91
2022-08-01T01:07:23.648Z,85541.78
2022-08-01T01:09:58.831Z,85284.91
2022-08-01T01:12:37.279Z,85541.78
2022-08-01T01:15:21.165Z,84514.44
2022-08-01T01:17:57.391Z,84257.66
2022-08-01T01:20:30.395Z,82974.03
2022-08-01T01:23:28.787Z,82717.38
2022-08-01T01:26:17.073Z,82460.72
2022-08-01T01:29:03.869Z,81947.50
2022-08-01T01:31:38.417Z,81947.50
2022-08-01T01:34:09.972Z,80921.25
2022-08-01T01:36:40.512Z,80921.25
2022-08-01T01:39:09.272Z,79638.84
2022-08-01T01:41:40.236Z,79895.28
2022-08-01T01:44:12.826Z,79126.03
2022-08-01T01:46:43.100Z,78869.66
2022-08-01T01:49:13.173Z,79382.44
2022-08-01T01:51:43.472Z,78356.94
2022-08-01T01:54:33.289Z,78100.63
2022-08-01T01:57:07.391Z,78100.63
2022-08-01T01:59:40.083Z,78356.94
2022-08-01T02:02:09.869Z,77588.03
2022-08-01T02:04:43.616Z,78100.63
2022-08-01T02:07:14.531Z,77588.03
2022-08-01T02:09:45.176Z,78613.28
2022-08-01T02:12:16.237Z,79382.44
2022-08-01T02:14:48.383Z,80664.72
2022-08-01T02:17:19.802Z,81434.31
2022-08-01T02:19:48.696Z,81947.50
2022-08-01T02:22:22.311Z,82204.09
2022-08-01T02:24:54.561Z,83487.44
2022-08-01T02:27:28.398Z,84257.66
2022-08-01T02:30:01.989Z,85028.06
2022-08-01T02:32:36.969Z,85798.66
2022-08-01T02:35:08.885Z,86055.56
2022-08-01T02:37:44.362Z,86569.41
2022-08-01T02:40:18.353Z,86826.34
2022-08-01T02:42:52.091Z,87340.31
2022-08-01T02:45:26.588Z,87597.34
2022-08-01T02:48:00.225Z,87854.38
2022-08-01T02:50:30.907Z,87597.34
2022-08-01T02:53:00.599Z,87597.34
2022-08-01T02:55:31.259Z,87340.31
2022-08-01T02:58:01.637Z,87340.31
2022-08-01T03:00:33.501Z,87083.34
2022-08-01T03:03:05.610Z,87083.34
2022-08-01T03:05:35.307Z,87083.34
2022-08-01T03:08:11.923Z,86312.47
2022-08-01T03:10:46.789Z,86055.56
2022-08-01T03:13:17.320Z,86055.56
2022-08-01T03:15:49.061Z,86569.41
2022-08-01T03:18:19.767Z,87340.31
2022-08-01T03:20:48.747Z,87597.34
2022-08-01T03:23:18.667Z,87597.34
2022-08-01T03:25:48.349Z,87597.34
2022-08-01T03:28:19.397Z,87597.34
2022-08-01T03:30:51.556Z,87854.38
2022-08-01T03:33:20.618Z,87597.34
2022-08-01T03:35:52.017Z,87597.34
2022-08-01T03:38:27.869Z,87597.34
2022-08-01T03:40:59.269Z,87597.34
2022-08-01T03:43:36.445Z,87340.31
2022-08-01T03:46:10.368Z,87340.31
2022-08-01T03:48:44.995Z,87597.34
2022-08-01T03:51:16.259Z,88111.41
2022-08-01T03:53:47.397Z,88111.41
2022-08-01T03:56:20.894Z,88625.56
2022-08-01T03:58:50.673Z,88111.41
2022-08-01T04:01:21.703Z,87854.38
2022-08-01T04:03:50.886Z,88625.56
2022-08-01T04:06:19.670Z,88368.50
2022-08-01T04:08:56.891Z,88625.56
2022-08-01T04:11:27.039Z,88111.41
2022-08-01T04:13:56.820Z,88111.41
2022-08-01T04:16:28.002Z,87854.38
2022-08-01T04:18:56.725Z,87340.31
2022-08-01T04:21:29.872Z,86312.47
2022-08-01T04:24:02.226Z,86569.41
2022-08-01T04:26:32.453Z,85798.66
2022-08-01T04:29:05.968Z,85798.66
2022-08-01T04:31:38.467Z,85028.06
2022-08-01T04:34:09.012Z,83744.16
2022-08-01T04:36:39.752Z,84257.66
2022-08-01T04:39:09.719Z,82717.38
2022-08-01T04:41:39.817Z,83487.44
2022-08-01T04:44:08.635Z,82717.38
2022-08-01T04:46:39.959Z,82974.03
2022-08-01T04:49:10.210Z,79638.84
2022-08-01T04:51:38.954Z,78613.28
2022-08-01T04:54:08.813Z,78356.94
2022-08-01T04:56:37.530Z,72978.16
2022-08-01T04:59:23.390Z,73490.06
2022-08-01T05:01:53.472Z,69409.00
2022-08-01T05:04:21.861Z,68570.19
2022-08-01T05:06:50.391Z,67635.78
2022-08-01T05:09:18.919Z,66104.91
2022-08-01T05:11:47.188Z,65260.94
2022-08-01T05:14:15.626Z,64315.47
2022-08-01T05:16:44.364Z,62808.03
2022-08-01T05:19:14.659Z,59659.72
2022-08-01T05:21:43.264Z,60030.22
2022-08-01T05:24:11.916Z,58924.88
2022-08-01T05:26:40.401Z,58548.56
2022-08-01T05:29:09.110Z,57660.69
2022-08-01T05:31:37.510Z,57025.78
2022-08-01T05:34:06.282Z,56466.59
2022-08-01T05:36:45.383Z,56102.47
2022-08-01T05:39:14.684Z,56112.41
2022-08-01T05:41:44.023Z,55776.19
2022-08-01T05:44:12.664Z,55895.56
2022-08-01T05:46:41.400Z,55097.88
2022-08-01T05:49:10.136Z,54737.88
2022-08-01T05:51:39.082Z,54980.53
2022-08-01T05:54:09.525Z,54548.97
2022-08-01T05:56:38.179Z,54226.81
2022-08-01T05:59:06.796Z,54151.25
2022-08-01T06:01:35.355Z,53956.38
2022-08-01T06:04:03.783Z,53912.66
2022-08-01T06:06:32.282Z,53880.84
2022-08-01T06:09:01.161Z,53858.97
2022-08-01T06:11:31.489Z,53892.75
2022-08-01T06:13:59.863Z,53763.53
2022-08-01T06:16:28.688Z,53753.59
2022-08-01T06:18:57.297Z,53687.97
2022-08-01T06:21:25.901Z,53753.59
2022-08-01T06:23:54.520Z,53729.72
2022-08-01T06:26:23.040Z,53652.19
2022-08-01T06:28:53.014Z,53670.09
2022-08-01T06:31:21.488Z,53662.13
2022-08-01T06:33:50.559Z,53634.28
2022-08-01T06:36:19.391Z,53622.38
2022-08-01T06:38:48.063Z,53618.38
2022-08-01T06:41:16.520Z,53654.19
2022-08-01T06:43:45.090Z,53638.28
2022-08-01T06:46:15.230Z,53638.28
2022-08-01T06:48:43.827Z,53596.53
2022-08-01T06:51:14.881Z,53568.69
2022-08-01T06:53:44.138Z,53532.91
2022-08-01T06:56:13.769Z,53590.56
2022-08-01T06:58:43.111Z,53566.69
2022-08-01T07:01:12.254Z,53540.84
2022-08-01T07:03:52.919Z,53513.03
2022-08-01T07:06:24.959Z,53522.97
2022-08-01T07:08:54.326Z,53517.00
2022-08-01T07:11:23.829Z,53524.94
2022-08-01T07:13:52.416Z,53483.19
2022-08-01T07:16:21.140Z,53475.25
2022-08-01T07:18:51.071Z,53483.19
2022-08-01T07:21:39.014Z,53469.28
2022-08-01T07:24:12.874Z,53459.34
2022-08-01T07:26:52.899Z,53433.50
2022-08-01T07:29:25.142Z,53403.69
2022-08-01T07:31:54.120Z,53417.59
2022-08-01T07:34:25.590Z,53403.69
2022-08-01T07:36:54.645Z,53411.63
2022-08-01T07:39:23.183Z,53425.53
2022-08-01T07:42:05.910Z,53409.63
2022-08-01T07:44:35.683Z,53379.81
2022-08-01T07:47:04.391Z,53395.72
2022-08-01T07:49:39.435Z,53375.84
2022-08-01T07:52:10.060Z,53375.84
2022-08-01T07:54:39.330Z,53363.91
2022-08-01T07:57:08.289Z,53371.88
2022-08-01T07:59:37.374Z,53340.06
2022-08-01T08:02:06.251Z,53375.84
2022-08-01T08:04:36.361Z,53359.94
2022-08-01T08:07:05.416Z,53389.75
2022-08-01T08:09:37.975Z,53346.03
2022-08-01T08:12:08.828Z,53353.97
2022-08-01T08:14:38.412Z,53340.06
2022-08-01T08:17:06.936Z,53344.03
2022-08-01T08:19:39.289Z,53340.06
2022-08-01T08:22:09.128Z,53308.25
2022-08-01T08:24:46.646Z,53363.91
2022-08-01T08:27:16.352Z,53326.16
2022-08-01T08:29:45.264Z,53326.16
2022-08-01T08:32:13.913Z,53312.22
2022-08-01T08:34:44.063Z,53338.06
2022-08-01T08:37:12.772Z,53300.31
2022-08-01T08:39:42.591Z,53294.34
2022-08-01T08:42:12.109Z,53312.22
2022-08-01T08:44:43.364Z,53316.22
2022-08-01T08:47:19.060Z,53312.22
2022-08-01T08:49:51.994Z,53300.31
2022-08-01T08:52:22.081Z,53326.16
2022-08-01T08:54:52.410Z,53274.47
2022-08-01T08:57:22.308Z,53300.31
2022-08-01T08:59:53.076Z,53278.44
2022-08-01T09:02:22.380Z,53284.41
2022-08-01T09:04:52.652Z,53262.53
2022-08-01T09:07:21.094Z,53296.31
2022-08-01T09:09:51.306Z,53274.47
2022-08-01T09:12:20.545Z,53272.47
2022-08-01T09:14:51.308Z,53256.56
2022-08-01T09:17:20.059Z,53272.47
2022-08-01T09:19:50.279Z,53314.22
2022-08-01T09:22:22.481Z,53284.41
2022-08-01T09:25:02.957Z,53286.38
2022-08-01T09:27:32.648Z,53262.53
2022-08-01T09:30:11.977Z,53276.44
2022-08-01T09:32:56.635Z,53264.53
2022-08-01T09:35:31.206Z,53264.53
2022-08-01T09:38:28.250Z,53276.44
2022-08-01T09:40:58.855Z,53246.63
2022-08-01T09:43:31.655Z,53252.59
2022-08-01T09:46:01.432Z,53242.66
2022-08-01T09:48:30.296Z,53266.50
2022-08-01T09:51:04.867Z,53260.53
2022-08-01T09:53:52.425Z,53252.59
2022-08-01T09:56:22.811Z,53276.44
2022-08-01T09:59:01.483Z,53220.78
2022-08-01T10:01:44.532Z,53200.91
2022-08-01T10:04:15.157Z,53236.69
2022-08-01T10:06:46.258Z,53214.81
2022-08-01T10:09:16.484Z,53230.72
2022-08-01T10:11:45.909Z,53236.69
2022-08-01T10:14:18.150Z,53256.56
2022-08-01T10:16:53.825Z,53276.44
2022-08-01T10:19:34.568Z,53242.66
2022-08-01T10:22:03.811Z,53238.69
2022-08-01T10:24:38.087Z,53252.59
2022-08-01T10:27:12.344Z,53250.59
2022-08-01T10:30:05.432Z,53280.41
2022-08-01T10:32:39.829Z,53214.81
2022-08-01T10:35:15.973Z,53224.75
2022-08-01T10:37:51.624Z,53228.75
2022-08-01T10:40:31.270Z,53224.75
2022-08-01T10:43:00.469Z,53224.75
2022-08-01T10:45:30.321Z,53212.84
2022-08-01T10:48:06.361Z,53228.75
2022-08-01T10:50:39.600Z,53208.84
2022-08-01T10:53:16.750Z,53198.91
2022-08-01T10:56:02.552Z,53204.88
2022-08-01T10:58:39.785Z,53208.84
2022-08-01T11:01:26.023Z,53230.72
2022-08-01T11:04:06.742Z,53202.91
2022-08-01T11:06:44.352Z,53224.75
2022-08-01T11:09:36.826Z,53224.75
2022-08-01T11:12:13.650Z,53238.69
2022-08-01T11:15:29.997Z,53220.78
2022-08-01T11:18:01.807Z,53210.84
2022-08-01T11:20:32.722Z,53173.06
2022-08-01T11:23:26.471Z,53212.84
2022-08-01T11:26:28.773Z,53206.88
2022-08-01T11:29:21.980Z,53224.75
2022-08-01T11:31:52.914Z,53224.75
2022-08-01T11:34:21.900Z,53206.88
2022-08-01T11:36:59.693Z,53244.63
2022-08-01T11:39:29.546Z,53204.88
2022-08-01T11:42:22.246Z,53212.84
2022-08-01T11:44:53.396Z,53188.97
2022-08-01T11:47:46.661Z,53196.94
2022-08-01T11:50:35.535Z,53220.78
2022-08-01T11:53:05.979Z,53212.84
2022-08-01T11:55:36.235Z,53192.94
2022-08-01T11:58:06.981Z,53208.84
2022-08-01T12:00:44.015Z,53177.06
2022-08-01T12:03:21.549Z,53177.06
2022-08-01T12:06:02.972Z,53173.06
2022-08-01T12:08:33.967Z,53185.00
2022-08-01T12:11:03.557Z,53187.00
2022-08-01T12:13:43.211Z,53200.91
2022-08-01T12:16:15.696Z,53167.13
2022-08-01T12:18:45.435Z,53218.81
2022-08-01T12:21:14.202Z,53181.03
2022-08-01T12:23:42.644Z,53218.81
2022-08-01T12:26:25.815Z,53212.84
2022-08-01T12:28:59.878Z,53133.31
2022-08-01T12:31:36.721Z,53167.13
2022-08-01T12:34:30.067Z,53181.03
2022-08-01T12:37:00.883Z,53202.91
2022-08-01T12:39:34.573Z,53212.84
2022-08-01T12:42:03.919Z,53216.81
2022-08-01T12:44:33.706Z,53248.63
2022-08-01T12:47:06.547Z,53210.84
2022-08-01T12:49:39.078Z,53220.78
2022-08-01T12:52:12.960Z,53210.84
2022-08-01T12:55:06.511Z,53177.06
2022-08-01T12:57:40.612Z,53187.00
2022-08-01T13:00:16.184Z,53179.03
2022-08-01T13:02:47.286Z,53198.91
2022-08-01T13:05:16.297Z,53183.00
2022-08-01T13:07:47.533Z,53200.91
2022-08-01T13:10:17.854Z,53181.03
2022-08-01T13:12:54.772Z,53212.84
2022-08-01T13:15:26.468Z,53208.84
2022-08-01T13:17:57.122Z,53179.03
2022-08-01T13:20:31.586Z,53204.88
2022-08-01T13:23:15.182Z,53208.84
2022-08-01T13:25:55.585Z,53185.00
2022-08-01T13:28:26.894Z,53181.03
2022-08-01T13:31:06.364Z,53153.19
2022-08-01T13:33:45.758Z,53151.22
2022-08-01T13:36:28.257Z,53173.06
2022-08-01T13:39:15.136Z,53157.19
2022-08-01T13:41:44.129Z,53159.16
2022-08-01T13:44:12.842Z,53157.19
2022-08-01T13:46:49.412Z,53163.13
2022-08-01T13:49:20.343Z,53159.16
2022-08-01T13:51:52.186Z,53169.09
2022-08-01T13:54:20.960Z,53147.22
2022-08-01T13:56:49.415Z,53127.34
2022-08-01T13:59:18.125Z,53105.50
2022-08-01T14:01:47.557Z,53149.22
2022-08-01T14:04:16.376Z,53157.19
2022-08-01T14:06:46.304Z,53157.19
2022-08-01T14:09:23.757Z,53129.34
2022-08-01T14:11:53.142Z,53169.09
2022-08-01T14:14:21.572Z,53183.00
2022-08-01T14:16:50.156Z,53210.84
2022-08-01T14:19:19.543Z,53179.03
2022-08-01T14:22:07.978Z,53145.25
2022-08-01T14:24:36.770Z,53188.97
2022-08-01T14:27:07.333Z,53208.84
2022-08-01T14:30:02.201Z,53157.19
2022-08-01T14:32:28.873Z,53190.97
2022-08-01T14:34:57.971Z,53194.94
2022-08-01T14:37:42.208Z,53179.03
2022-08-01T14:40:12.671Z,53177.06
2022-08-01T14:42:42.042Z,53188.97
2022-08-01T14:45:12.045Z,53204.88
2022-08-01T14:47:41.945Z,53208.84
2022-08-01T14:50:13.437Z,53161.16
2022-08-01T14:52:45.305Z,53157.19
2022-08-01T14:55:14.956Z,53202.91
2022-08-01T14:57:43.404Z,53165.13
2022-08-01T15:00:14.694Z,53177.06
2022-08-01T15:02:44.190Z,53159.16
2022-08-01T15:05:12.825Z,53192.94
2022-08-01T15:07:51.623Z,53192.94
2022-08-01T15:10:22.633Z,53194.94
2022-08-01T15:12:51.260Z,53181.03
2022-08-01T15:15:20.861Z,53187.00
2022-08-01T15:17:49.397Z,53208.84
2022-08-01T15:20:18.173Z,53200.91
2022-08-01T15:22:48.848Z,53169.09
2022-08-01T15:25:17.662Z,53200.91
2022-08-01T15:27:46.429Z,53163.13
2022-08-01T15:30:15.592Z,53188.97
2022-08-01T15:32:44.597Z,53185.00
2022-08-01T15:35:12.941Z,53181.03
2022-08-01T15:37:43.233Z,53173.06
2022-08-01T15:40:14.177Z,53137.28
2022-08-01T15:42:44.116Z,53188.97
2022-08-01T15:45:44.514Z,53194.94
2022-08-01T15:48:06.225Z,53153.19
2022-08-01T15:50:34.547Z,53153.19
2022-08-01T15:53:02.970Z,53177.06
2022-08-01T15:55:32.969Z,53196.94
2022-08-01T15:58:02.852Z,53169.09
2022-08-01T16:00:32.710Z,53192.94
2022-08-01T16:03:05.086Z,53185.00
2022-08-01T16:05:33.697Z,53218.81
2022-08-01T16:08:02.374Z,53198.91
2022-08-01T16:10:32.390Z,53177.06
2022-08-01T16:13:06.913Z,53161.16
2022-08-01T16:15:37.521Z,53169.09
2022-08-01T16:18:12.865Z,53204.88
2022-08-01T16:20:46.102Z,53190.97
2022-08-01T16:23:16.781Z,53169.09
2022-08-01T16:25:47.397Z,53192.94
2022-08-01T16:28:16.180Z,53157.19
2022-08-01T16:30:50.248Z,53188.97
2022-08-01T16:33:49.762Z,53220.78
2022-08-01T16:36:25.045Z,53165.13
2022-08-01T16:38:54.081Z,53185.00
2022-08-01T16:41:24.283Z,53173.06
2022-08-01T16:43:54.578Z,53177.06
2022-08-01T16:46:25.517Z,53188.97
2022-08-01T16:48:55.623Z,53204.88
2022-08-01T16:51:24.712Z,53190.97
2022-08-01T16:53:53.870Z,53194.94
2022-08-01T16:56:24.132Z,53228.75
2022-08-01T16:58:53.003Z,53185.00
2022-08-01T17:01:59.077Z,53167.13
2022-08-01T17:04:10.416Z,53181.03
2022-08-01T17:06:38.905Z,53190.97
2022-08-01T17:09:07.611Z,53198.91
2022-08-01T17:11:37.653Z,53173.06
2022-08-01T17:14:07.049Z,53181.03
2022-08-01T17:16:36.107Z,53169.09
2022-08-01T17:19:05.086Z,53161.16
2022-08-01T17:21:33.865Z,53149.22
2022-08-01T17:24:02.499Z,53161.16
2022-08-01T17:26:31.240Z,53187.00
2022-08-01T17:29:01.250Z,53165.13
2022-08-01T17:31:29.975Z,53153.19
2022-08-01T17:33:58.491Z,53179.03
2022-08-01T17:36:26.957Z,53159.16
2022-08-01T17:38:55.602Z,53167.13
2022-08-01T17:41:24.099Z,53188.97
2022-08-01T17:43:53.284Z,53165.13
2022-08-01T17:46:23.381Z,53165.13
2022-08-01T17:48:53.346Z,53192.94
2022-08-01T17:51:23.050Z,53183.00
2022-08-01T17:53:57.462Z,53188.97
2022-08-01T17:56:26.695Z,53163.13
2022-08-01T17:58:55.462Z,53177.06
2022-08-01T18:01:27.094Z,53179.03
2022-08-01T18:03:57.397Z,53216.81
2022-08-01T18:06:28.536Z,53171.09
2022-08-01T18:08:59.513Z,53200.91
2022-08-01T18:11:28.675Z,53224.75
2022-08-01T18:14:06.386Z,53194.94
2022-08-01T18:16:36.321Z,53212.84
2022-08-01T18:19:07.186Z,53208.84
2022-08-01T18:21:39.706Z,53212.84
2022-08-01T18:24:10.958Z,53224.75
2022-08-01T18:26:39.610Z,53226.75
2022-08-01T18:29:10.155Z,53208.84
2022-08-01T18:31:42.538Z,53224.75
2022-08-01T18:34:11.560Z,53212.84
2022-08-01T18:36:41.472Z,53216.81
2022-08-01T18:39:13.652Z,53210.84
2022-08-01T18:41:43.535Z,53228.75
2022-08-01T18:44:12.619Z,53250.59
2022-08-01T18:46:43.693Z,53244.63
2022-08-01T18:49:13.189Z,53222.78
2022-08-01T18:51:44.797Z,53212.84
2022-08-01T18:54:17.262Z,53228.75
2022-08-01T18:56:47.181Z,53228.75
2022-08-01T18:59:15.914Z,53250.59
2022-08-01T19:01:46.259Z,53260.53
2022-08-01T19:04:17.533Z,53238.69
2022-08-01T19:06:47.631Z,53272.47
2022-08-01T19:09:20.806Z,53276.44
2022-08-01T19:11:49.861Z,53270.47
2022-08-01T19:14:18.775Z,53256.56
2022-08-01T19:16:48.885Z,53256.56
2022-08-01T19:19:27.419Z,53270.47
2022-08-01T19:21:57.229Z,53272.47
2022-08-01T19:24:26.088Z,53248.63
2022-08-01T19:26:56.581Z,53298.31
2022-08-01T19:29:35.334Z,53288.38
2022-08-01T19:32:08.880Z,53288.38
2022-08-01T19:34:44.234Z,53322.16
2022-08-01T19:37:15.322Z,53308.25
2022-08-01T19:39:46.151Z,53332.09
2022-08-01T19:42:18.674Z,53294.34
2022-08-01T19:44:49.895Z,53330.13
2022-08-01T19:47:20.438Z,53359.94
2022-08-01T19:49:49.449Z,53352.00
2022-08-01T19:52:21.244Z,53314.22
2022-08-01T19:54:55.457Z,53338.06
2022-08-01T19:57:26.479Z,53355.97
2022-08-01T20:00:24.047Z,53342.06
2022-08-01T20:02:58.214Z,53328.13
2022-08-01T20:05:27.275Z,53344.03
2022-08-01T20:07:55.863Z,53355.97
2022-08-01T20:10:24.493Z,53348.00
2022-08-01T20:12:55.049Z,53353.97
2022-08-01T20:15:23.788Z,53367.91
2022-08-01T20:17:52.366Z,53328.13
2022-08-01T20:20:22.930Z,53357.94
2022-08-01T20:22:54.746Z,53361.94
2022-08-01T20:25:24.828Z,53361.94
2022-08-01T20:27:53.649Z,53363.91
2022-08-01T20:30:23.490Z,53357.94
2022-08-01T20:32:53.907Z,53352.00
2022-08-01T20:35:52.281Z,53365.91
2022-08-01T20:38:23.009Z,53369.88
2022-08-01T20:40:52.611Z,53379.81
2022-08-01T20:43:22.347Z,53379.81
2022-08-01T20:45:52.010Z,53371.88
2022-08-01T20:48:21.467Z,53357.94
2022-08-01T20:51:08.908Z,53387.78
2022-08-01T20:53:41.107Z,53367.91
2022-08-01T20:56:18.642Z,53379.81
2022-08-01T20:59:01.872Z,53391.75
2022-08-01T21:01:35.369Z,53401.69
2022-08-01T21:04:33.993Z,53397.72
2022-08-01T21:07:10.854Z,53399.69
2022-08-01T21:09:43.631Z,53411.63
2022-08-01T21:12:21.511Z,53395.72
2022-08-01T21:14:52.627Z,53429.53
2022-08-01T21:17:35.669Z,53439.47
2022-08-01T21:20:08.296Z,53431.50
2022-08-01T21:22:52.686Z,53393.75
2022-08-01T21:25:27.895Z,53425.53
2022-08-01T21:27:56.835Z,53421.56
2022-08-01T21:30:26.448Z,53421.56
2022-08-01T21:32:56.548Z,53415.59
2022-08-01T21:35:27.521Z,53427.53
2022-08-01T21:38:03.278Z,53407.66
2022-08-01T21:40:34.101Z,53435.47
2022-08-01T21:43:03.788Z,53443.44
2022-08-01T21:45:32.210Z,53453.38
2022-08-01T21:48:00.913Z,53439.47
2022-08-01T21:50:39.777Z,53421.56
2022-08-01T21:53:17.155Z,53413.63
2022-08-01T21:56:14.981Z,53427.53
2022-08-01T21:58:51.550Z,53443.44
2022-08-01T22:01:52.565Z,53455.38
2022-08-01T22:04:28.632Z,53491.16
2022-08-01T22:06:58.634Z,53439.47
2022-08-01T22:09:33.254Z,53471.28
2022-08-01T22:12:08.023Z,53439.47
2022-08-01T22:14:45.822Z,53443.44
2022-08-01T22:17:18.460Z,53447.41
2022-08-01T22:19:50.695Z,53467.28
2022-08-01T22:22:50.501Z,53439.47
2022-08-01T22:25:14.318Z,53477.22
2022-08-01T22:28:08.868Z,53447.41
2022-08-01T22:30:35.371Z,53473.25
2022-08-01T22:33:15.085Z,53467.28
2022-08-01T22:35:47.404Z,53473.25
2022-08-01T22:38:20.267Z,53453.38
2022-08-01T22:40:53.457Z,53493.13
2022-08-01T22:43:35.413Z,53469.28
2022-08-01T22:46:17.133Z,53479.22
2022-08-01T22:48:51.092Z,53487.19
2022-08-01T22:51:33.147Z,53463.31
2022-08-01T22:54:05.804Z,53459.34
2022-08-01T22:56:39.841Z,53505.06
2022-08-01T22:59:15.342Z,53459.34
2022-08-01T23:01:47.822Z,53485.19
2022-08-01T23:04:33.653Z,53475.25
2022-08-01T23:07:07.009Z,53518.97
2022-08-01T23:09:53.018Z,53467.28
2022-08-01T23:12:27.652Z,53475.25
2022-08-01T23:14:57.791Z,53503.06
2022-08-01T23:17:29.219Z,53489.16
2022-08-01T23:20:03.056Z,53493.13
2022-08-01T23:22:33.604Z,53475.25
2022-08-01T23:25:06.036Z,53491.16
2022-08-01T23:27:54.320Z,53497.13
2022-08-01T23:30:28.455Z,53483.19
2022-08-01T23:32:57.645Z,53493.13
2022-08-01T23:35:27.531Z,53499.09
2022-08-01T23:38:02.566Z,53511.03
2022-08-01T23:40:32.113Z,53499.09
2022-08-01T23:43:02.850Z,53524.94
2022-08-01T23:46:02.623Z,53518.97
2022-08-01T23:48:20.935Z,53538.88
2022-08-01T23:50:49.453Z,53501.09
2022-08-01T23:53:17.789Z,53505.06
2022-08-01T23:55:49.140Z,53534.88
2022-08-01T23:58:20.032Z,53501.09
